sensor_id;sensor_type;location;lat;lon;timestamp;P1;durP1;ratioP1;P2;durP2;ratioP2
4939;SDS011;2485;49.326;7.214;2022-08-19T00:01:16;51.87;;;32.87;;
4939;SDS011;2485;49.326;7.214;2022-08-19T00:03:43;58.20;;;34.53;;
4939;SDS011;2485;49.326;7.214;2022-08-19T00:06:10;53.07;;;33.43;;
4939;SDS011;2485;49.326;7.214;2022-08-19T00:08:37;51.63;;;32.53;;
4939;SDS011;2485;49.326;7.214;2022-08-19T00:11:04;56.47;;;34.13;;
4939;SDS011;2485;49.326;7.214;2022-08-19T00:13:31;58.63;;;34.77;;
4939;SDS011;2485;49.326;7.214;2022-08-19T00:16:00;56.87;;;34.80;;
4939;SDS011;2485;49.326;7.214;2022-08-19T00:18:27;51.17;;;32.50;;
4939;SDS011;2485;49.326;7.214;2022-08-19T00:20:54;52.83;;;33.13;;
4939;SDS011;2485;49.326;7.214;2022-08-19T00:23:21;46.77;;;31.10;;
4939;SDS011;2485;49.326;7.214;2022-08-19T00:25:48;52.40;;;32.93;;
4939;SDS011;2485;49.326;7.214;2022-08-19T00:28:15;51.90;;;32.67;;
4939;SDS011;2485;49.326;7.214;2022-08-19T00:30:42;47.57;;;31.77;;
4939;SDS011;2485;49.326;7.214;2022-08-19T00:33:11;45.90;;;31.10;;
4939;SDS011;2485;49.326;7.214;2022-08-19T00:35:38;48.37;;;29.80;;
4939;SDS011;2485;49.326;7.214;2022-08-19T00:38:05;44.77;;;29.93;;
4939;SDS011;2485;49.326;7.214;2022-08-19T00:40:32;46.50;;;30.80;;
4939;SDS011;2485;49.326;7.214;2022-08-19T00:43:00;47.23;;;30.73;;
4939;SDS011;2485;49.326;7.214;2022-08-19T00:45:27;48.63;;;30.90;;
4939;SDS011;2485;49.326;7.214;2022-08-19T00:47:56;46.37;;;31.70;;
4939;SDS011;2485;49.326;7.214;2022-08-19T00:50:25;51.07;;;32.70;;
4939;SDS011;2485;49.326;7.214;2022-08-19T00:52:53;53.07;;;31.30;;
4939;SDS011;2485;49.326;7.214;2022-08-19T00:55:20;49.63;;;32.43;;
4939;SDS011;2485;49.326;7.214;2022-08-19T00:57:48;52.10;;;32.50;;
4939;SDS011;2485;49.326;7.214;2022-08-19T01:00:17;46.50;;;29.77;;
4939;SDS011;2485;49.326;7.214;2022-08-19T01:02:45;47.13;;;31.60;;
4939;SDS011;2485;49.326;7.214;2022-08-19T01:05:13;45.43;;;29.47;;
4939;SDS011;2485;49.326;7.214;2022-08-19T01:07:42;49.43;;;31.10;;
4939;SDS011;2485;49.326;7.214;2022-08-19T01:10:10;50.67;;;32.23;;
4939;SDS011;2485;49.326;7.214;2022-08-19T01:12:37;45.97;;;30.53;;
4939;SDS011;2485;49.326;7.214;2022-08-19T01:15:05;51.17;;;31.03;;
4939;SDS011;2485;49.326;7.214;2022-08-19T01:17:33;46.07;;;29.90;;
4939;SDS011;2485;49.326;7.214;2022-08-19T01:20:01;49.00;;;31.50;;
4939;SDS011;2485;49.326;7.214;2022-08-19T01:22:30;46.57;;;30.50;;
4939;SDS011;2485;49.326;7.214;2022-08-19T01:24:58;48.47;;;30.80;;
4939;SDS011;2485;49.326;7.214;2022-08-19T01:27:25;46.87;;;29.80;;
4939;SDS011;2485;49.326;7.214;2022-08-19T01:29:52;49.87;;;32.67;;
4939;SDS011;2485;49.326;7.214;2022-08-19T01:32:19;49.33;;;32.07;;
4939;SDS011;2485;49.326;7.214;2022-08-19T01:34:46;46.60;;;33.17;;
4939;SDS011;2485;49.326;7.214;2022-08-19T01:37:13;53.50;;;34.03;;
4939;SDS011;2485;49.326;7.214;2022-08-19T01:39:42;48.37;;;33.07;;
4939;SDS011;2485;49.326;7.214;2022-08-19T01:42:09;49.63;;;32.20;;
4939;SDS011;2485;49.326;7.214;2022-08-19T01:44:37;49.10;;;32.93;;
4939;SDS011;2485;49.326;7.214;2022-08-19T01:47:05;47.47;;;31.67;;
4939;SDS011;2485;49.326;7.214;2022-08-19T01:49:32;42.67;;;30.00;;
4939;SDS011;2485;49.326;7.214;2022-08-19T01:51:59;39.57;;;28.63;;
4939;SDS011;2485;49.326;7.214;2022-08-19T01:54:26;42.87;;;29.47;;
4939;SDS011;2485;49.326;7.214;2022-08-19T01:56:57;41.60;;;29.30;;
4939;SDS011;2485;49.326;7.214;2022-08-19T01:59:24;37.57;;;27.30;;
4939;SDS011;2485;49.326;7.214;2022-08-19T02:01:51;40.00;;;28.33;;
4939;SDS011;2485;49.326;7.214;2022-08-19T02:04:18;38.80;;;27.50;;
4939;SDS011;2485;49.326;7.214;2022-08-19T02:06:46;39.80;;;27.70;;
4939;SDS011;2485;49.326;7.214;2022-08-19T02:09:14;40.03;;;29.23;;
4939;SDS011;2485;49.326;7.214;2022-08-19T02:11:41;42.80;;;29.47;;
4939;SDS011;2485;49.326;7.214;2022-08-19T02:14:10;42.87;;;29.47;;
4939;SDS011;2485;49.326;7.214;2022-08-19T02:16:36;48.50;;;30.40;;
4939;SDS011;2485;49.326;7.214;2022-08-19T02:19:05;44.23;;;28.57;;
4939;SDS011;2485;49.326;7.214;2022-08-19T02:21:33;40.80;;;29.43;;
4939;SDS011;2485;49.326;7.214;2022-08-19T02:24:00;44.33;;;29.40;;
4939;SDS011;2485;49.326;7.214;2022-08-19T02:26:27;44.77;;;30.67;;
4939;SDS011;2485;49.326;7.214;2022-08-19T02:28:54;41.53;;;29.23;;
4939;SDS011;2485;49.326;7.214;2022-08-19T02:31:23;51.00;;;30.70;;
4939;SDS011;2485;49.326;7.214;2022-08-19T02:33:50;45.00;;;30.10;;
4939;SDS011;2485;49.326;7.214;2022-08-19T02:36:18;48.67;;;30.03;;
4939;SDS011;2485;49.326;7.214;2022-08-19T02:38:45;44.67;;;30.50;;
4939;SDS011;2485;49.326;7.214;2022-08-19T02:41:12;42.40;;;28.53;;
4939;SDS011;2485;49.326;7.214;2022-08-19T02:43:39;41.90;;;29.13;;
4939;SDS011;2485;49.326;7.214;2022-08-19T02:46:11;41.10;;;28.67;;
4939;SDS011;2485;49.326;7.214;2022-08-19T02:48:39;44.30;;;29.40;;
4939;SDS011;2485;49.326;7.214;2022-08-19T02:51:06;38.43;;;29.13;;
4939;SDS011;2485;49.326;7.214;2022-08-19T02:53:32;46.80;;;29.73;;
4939;SDS011;2485;49.326;7.214;2022-08-19T02:56:00;42.57;;;28.47;;
4939;SDS011;2485;49.326;7.214;2022-08-19T02:58:27;51.50;;;29.80;;
4939;SDS011;2485;49.326;7.214;2022-08-19T03:00:55;48.03;;;30.20;;
4939;SDS011;2485;49.326;7.214;2022-08-19T03:03:21;44.13;;;30.23;;
4939;SDS011;2485;49.326;7.214;2022-08-19T03:05:50;47.17;;;30.20;;
4939;SDS011;2485;49.326;7.214;2022-08-19T03:08:16;49.47;;;31.50;;
4939;SDS011;2485;49.326;7.214;2022-08-19T03:10:44;46.20;;;30.07;;
4939;SDS011;2485;49.326;7.214;2022-08-19T03:13:12;48.87;;;30.60;;
4939;SDS011;2485;49.326;7.214;2022-08-19T03:15:39;46.67;;;30.93;;
4939;SDS011;2485;49.326;7.214;2022-08-19T03:18:06;42.97;;;29.87;;
4939;SDS011;2485;49.326;7.214;2022-08-19T03:20:33;42.87;;;29.77;;
4939;SDS011;2485;49.326;7.214;2022-08-19T03:23:02;47.33;;;31.17;;
4939;SDS011;2485;49.326;7.214;2022-08-19T03:25:28;46.73;;;30.20;;
4939;SDS011;2485;49.326;7.214;2022-08-19T03:27:55;43.10;;;29.97;;
4939;SDS011;2485;49.326;7.214;2022-08-19T03:30:22;51.10;;;30.10;;
4939;SDS011;2485;49.326;7.214;2022-08-19T03:32:49;41.53;;;28.80;;
4939;SDS011;2485;49.326;7.214;2022-08-19T03:35:16;40.47;;;27.50;;
4939;SDS011;2485;49.326;7.214;2022-08-19T03:37:43;41.43;;;28.83;;
4939;SDS011;2485;49.326;7.214;2022-08-19T03:40:11;39.47;;;27.37;;
4939;SDS011;2485;49.326;7.214;2022-08-19T03:42:37;38.30;;;26.97;;
4939;SDS011;2485;49.326;7.214;2022-08-19T03:45:07;38.17;;;27.10;;
4939;SDS011;2485;49.326;7.214;2022-08-19T03:47:35;45.43;;;28.80;;
4939;SDS011;2485;49.326;7.214;2022-08-19T03:50:03;42.80;;;28.00;;
4939;SDS011;2485;49.326;7.214;2022-08-19T03:52:30;40.63;;;25.80;;
4939;SDS011;2485;49.326;7.214;2022-08-19T03:54:57;44.07;;;27.70;;
4939;SDS011;2485;49.326;7.214;2022-08-19T03:57:25;37.33;;;27.60;;
4939;SDS011;2485;49.326;7.214;2022-08-19T03:59:52;42.17;;;27.23;;
4939;SDS011;2485;49.326;7.214;2022-08-19T04:02:19;43.10;;;26.50;;
4939;SDS011;2485;49.326;7.214;2022-08-19T04:04:46;39.57;;;27.33;;
4939;SDS011;2485;49.326;7.214;2022-08-19T04:07:14;40.67;;;28.00;;
4939;SDS011;2485;49.326;7.214;2022-08-19T04:09:43;43.10;;;28.80;;
4939;SDS011;2485;49.326;7.214;2022-08-19T04:12:10;38.70;;;27.80;;
4939;SDS011;2485;49.326;7.214;2022-08-19T04:14:38;41.13;;;28.30;;
4939;SDS011;2485;49.326;7.214;2022-08-19T04:17:05;40.33;;;26.77;;
4939;SDS011;2485;49.326;7.214;2022-08-19T04:19:32;39.90;;;26.67;;
4939;SDS011;2485;49.326;7.214;2022-08-19T04:21:59;46.20;;;28.50;;
4939;SDS011;2485;49.326;7.214;2022-08-19T04:24:26;40.60;;;28.80;;
4939;SDS011;2485;49.326;7.214;2022-08-19T04:26:53;40.00;;;27.40;;
4939;SDS011;2485;49.326;7.214;2022-08-19T04:29:21;42.97;;;28.37;;
4939;SDS011;2485;49.326;7.214;2022-08-19T04:31:52;40.50;;;28.37;;
4939;SDS011;2485;49.326;7.214;2022-08-19T04:34:20;39.40;;;28.30;;
4939;SDS011;2485;49.326;7.214;2022-08-19T04:36:48;38.70;;;26.50;;
4939;SDS011;2485;49.326;7.214;2022-08-19T04:39:17;38.70;;;26.80;;
4939;SDS011;2485;49.326;7.214;2022-08-19T04:41:45;41.47;;;28.00;;
4939;SDS011;2485;49.326;7.214;2022-08-19T04:44:37;36.87;;;27.10;;
4939;SDS011;2485;49.326;7.214;2022-08-19T04:47:06;44.70;;;26.83;;
4939;SDS011;2485;49.326;7.214;2022-08-19T04:49:33;37.87;;;26.07;;
4939;SDS011;2485;49.326;7.214;2022-08-19T04:52:00;39.97;;;28.20;;
4939;SDS011;2485;49.326;7.214;2022-08-19T04:54:30;42.53;;;27.40;;
4939;SDS011;2485;49.326;7.214;2022-08-19T04:57:03;40.93;;;27.07;;
4939;SDS011;2485;49.326;7.214;2022-08-19T04:59:31;39.47;;;28.03;;
4939;SDS011;2485;49.326;7.214;2022-08-19T05:02:07;38.87;;;26.07;;
4939;SDS011;2485;49.326;7.214;2022-08-19T05:04:36;35.67;;;24.60;;
4939;SDS011;2485;49.326;7.214;2022-08-19T05:07:04;33.60;;;25.03;;
4939;SDS011;2485;49.326;7.214;2022-08-19T05:09:34;34.90;;;25.10;;
4939;SDS011;2485;49.326;7.214;2022-08-19T05:12:04;32.87;;;24.83;;
4939;SDS011;2485;49.326;7.214;2022-08-19T05:14:31;33.43;;;23.90;;
4939;SDS011;2485;49.326;7.214;2022-08-19T05:17:00;31.37;;;23.07;;
4939;SDS011;2485;49.326;7.214;2022-08-19T05:19:27;32.80;;;24.07;;
4939;SDS011;2485;49.326;7.214;2022-08-19T05:22:13;38.07;;;25.10;;
4939;SDS011;2485;49.326;7.214;2022-08-19T05:25:00;33.77;;;25.00;;
4939;SDS011;2485;49.326;7.214;2022-08-19T05:27:28;35.37;;;24.83;;
4939;SDS011;2485;49.326;7.214;2022-08-19T05:29:55;32.50;;;25.07;;
4939;SDS011;2485;49.326;7.214;2022-08-19T05:32:21;32.27;;;22.73;;
4939;SDS011;2485;49.326;7.214;2022-08-19T05:34:49;36.27;;;24.40;;
4939;SDS011;2485;49.326;7.214;2022-08-19T05:37:17;35.90;;;24.67;;
4939;SDS011;2485;49.326;7.214;2022-08-19T05:39:44;37.77;;;23.83;;
4939;SDS011;2485;49.326;7.214;2022-08-19T05:42:11;30.70;;;23.63;;
4939;SDS011;2485;49.326;7.214;2022-08-19T05:44:43;32.87;;;23.87;;
4939;SDS011;2485;49.326;7.214;2022-08-19T05:47:13;33.97;;;23.83;;
4939;SDS011;2485;49.326;7.214;2022-08-19T05:49:40;32.53;;;23.13;;
4939;SDS011;2485;49.326;7.214;2022-08-19T05:52:10;31.90;;;23.03;;
4939;SDS011;2485;49.326;7.214;2022-08-19T05:54:40;33.90;;;23.60;;
4939;SDS011;2485;49.326;7.214;2022-08-19T05:57:08;26.17;;;21.23;;
4939;SDS011;2485;49.326;7.214;2022-08-19T05:59:35;26.13;;;19.30;;
4939;SDS011;2485;49.326;7.214;2022-08-19T06:02:02;25.13;;;20.40;;
4939;SDS011;2485;49.326;7.214;2022-08-19T06:04:29;33.77;;;21.57;;
4939;SDS011;2485;49.326;7.214;2022-08-19T06:06:56;25.30;;;19.07;;
4939;SDS011;2485;49.326;7.214;2022-08-19T06:09:23;22.80;;;18.40;;
4939;SDS011;2485;49.326;7.214;2022-08-19T06:11:52;22.80;;;18.67;;
4939;SDS011;2485;49.326;7.214;2022-08-19T06:14:20;22.70;;;17.63;;
4939;SDS011;2485;49.326;7.214;2022-08-19T06:16:48;21.83;;;17.50;;
4939;SDS011;2485;49.326;7.214;2022-08-19T06:19:18;20.83;;;18.03;;
4939;SDS011;2485;49.326;7.214;2022-08-19T06:21:45;19.10;;;16.20;;
4939;SDS011;2485;49.326;7.214;2022-08-19T06:24:13;21.57;;;16.43;;
4939;SDS011;2485;49.326;7.214;2022-08-19T06:26:42;23.10;;;17.20;;
4939;SDS011;2485;49.326;7.214;2022-08-19T06:29:11;17.57;;;14.80;;
4939;SDS011;2485;49.326;7.214;2022-08-19T06:31:41;18.90;;;15.93;;
4939;SDS011;2485;49.326;7.214;2022-08-19T06:34:07;17.30;;;14.50;;
4939;SDS011;2485;49.326;7.214;2022-08-19T06:36:35;19.53;;;15.20;;
4939;SDS011;2485;49.326;7.214;2022-08-19T06:39:03;22.80;;;16.33;;
4939;SDS011;2485;49.326;7.214;2022-08-19T06:41:30;20.53;;;16.00;;
4939;SDS011;2485;49.326;7.214;2022-08-19T06:43:57;23.37;;;15.57;;
4939;SDS011;2485;49.326;7.214;2022-08-19T06:46:26;21.93;;;15.20;;
4939;SDS011;2485;49.326;7.214;2022-08-19T06:48:53;19.77;;;15.10;;
4939;SDS011;2485;49.326;7.214;2022-08-19T06:51:21;19.27;;;15.10;;
4939;SDS011;2485;49.326;7.214;2022-08-19T06:53:49;19.30;;;14.70;;
4939;SDS011;2485;49.326;7.214;2022-08-19T06:56:20;17.10;;;14.43;;
4939;SDS011;2485;49.326;7.214;2022-08-19T06:58:48;17.90;;;15.03;;
4939;SDS011;2485;49.326;7.214;2022-08-19T07:01:18;18.53;;;15.50;;
4939;SDS011;2485;49.326;7.214;2022-08-19T07:03:47;17.00;;;14.73;;
4939;SDS011;2485;49.326;7.214;2022-08-19T07:06:14;20.07;;;15.70;;
4939;SDS011;2485;49.326;7.214;2022-08-19T07:08:43;18.07;;;15.13;;
4939;SDS011;2485;49.326;7.214;2022-08-19T07:11:10;19.73;;;15.33;;
4939;SDS011;2485;49.326;7.214;2022-08-19T07:13:38;22.00;;;16.17;;
4939;SDS011;2485;49.326;7.214;2022-08-19T07:16:05;18.20;;;14.93;;
4939;SDS011;2485;49.326;7.214;2022-08-19T07:18:32;19.27;;;16.60;;
4939;SDS011;2485;49.326;7.214;2022-08-19T07:21:04;19.33;;;15.23;;
4939;SDS011;2485;49.326;7.214;2022-08-19T07:23:31;18.07;;;15.00;;
4939;SDS011;2485;49.326;7.214;2022-08-19T07:25:59;20.40;;;14.97;;
4939;SDS011;2485;49.326;7.214;2022-08-19T07:28:30;20.83;;;16.83;;
4939;SDS011;2485;49.326;7.214;2022-08-19T07:30:57;19.83;;;15.30;;
4939;SDS011;2485;49.326;7.214;2022-08-19T07:33:26;18.47;;;14.90;;
4939;SDS011;2485;49.326;7.214;2022-08-19T07:35:55;17.47;;;14.43;;
4939;SDS011;2485;49.326;7.214;2022-08-19T07:38:23;17.90;;;14.53;;
4939;SDS011;2485;49.326;7.214;2022-08-19T07:40:50;19.50;;;15.67;;
4939;SDS011;2485;49.326;7.214;2022-08-19T07:43:17;18.83;;;16.40;;
4939;SDS011;2485;49.326;7.214;2022-08-19T07:45:46;20.07;;;16.37;;
4939;SDS011;2485;49.326;7.214;2022-08-19T07:48:13;19.27;;;16.90;;
4939;SDS011;2485;49.326;7.214;2022-08-19T07:50:40;18.80;;;16.73;;
4939;SDS011;2485;49.326;7.214;2022-08-19T07:53:07;19.80;;;17.20;;
4939;SDS011;2485;49.326;7.214;2022-08-19T07:55:35;19.80;;;14.97;;
4939;SDS011;2485;49.326;7.214;2022-08-19T07:58:02;23.80;;;16.77;;
4939;SDS011;2485;49.326;7.214;2022-08-19T08:00:30;18.50;;;16.40;;
4939;SDS011;2485;49.326;7.214;2022-08-19T08:02:56;18.43;;;15.90;;
4939;SDS011;2485;49.326;7.214;2022-08-19T08:05:23;20.40;;;15.70;;
4939;SDS011;2485;49.326;7.214;2022-08-19T08:08:08;16.23;;;14.33;;
4939;SDS011;2485;49.326;7.214;2022-08-19T08:10:53;22.30;;;17.10;;
4939;SDS011;2485;49.326;7.214;2022-08-19T08:13:20;16.17;;;14.53;;
4939;SDS011;2485;49.326;7.214;2022-08-19T08:15:47;16.57;;;13.73;;
4939;SDS011;2485;49.326;7.214;2022-08-19T08:18:14;16.53;;;14.60;;
4939;SDS011;2485;49.326;7.214;2022-08-19T08:20:44;14.43;;;13.03;;
4939;SDS011;2485;49.326;7.214;2022-08-19T08:23:11;16.60;;;14.10;;
4939;SDS011;2485;49.326;7.214;2022-08-19T08:25:51;17.63;;;13.97;;
4939;SDS011;2485;49.326;7.214;2022-08-19T08:28:19;18.33;;;14.40;;
4939;SDS011;2485;49.326;7.214;2022-08-19T08:30:46;15.73;;;13.97;;
4939;SDS011;2485;49.326;7.214;2022-08-19T08:33:14;16.73;;;13.20;;
4939;SDS011;2485;49.326;7.214;2022-08-19T08:35:44;17.10;;;13.43;;
4939;SDS011;2485;49.326;7.214;2022-08-19T08:38:11;15.00;;;12.40;;
4939;SDS011;2485;49.326;7.214;2022-08-19T08:40:39;14.10;;;12.70;;
4939;SDS011;2485;49.326;7.214;2022-08-19T08:43:11;13.60;;;11.33;;
4939;SDS011;2485;49.326;7.214;2022-08-19T08:45:43;12.77;;;10.60;;
4939;SDS011;2485;49.326;7.214;2022-08-19T08:48:14;11.80;;;10.60;;
4939;SDS011;2485;49.326;7.214;2022-08-19T08:50:43;12.60;;;11.30;;
4939;SDS011;2485;49.326;7.214;2022-08-19T08:53:12;10.77;;;9.67;;
4939;SDS011;2485;49.326;7.214;2022-08-19T08:55:40;10.90;;;9.73;;
4939;SDS011;2485;49.326;7.214;2022-08-19T08:58:09;10.53;;;9.43;;
4939;SDS011;2485;49.326;7.214;2022-08-19T09:00:39;9.73;;;8.27;;
4939;SDS011;2485;49.326;7.214;2022-08-19T09:03:13;9.47;;;7.70;;
4939;SDS011;2485;49.326;7.214;2022-08-19T09:05:44;7.90;;;7.10;;
4939;SDS011;2485;49.326;7.214;2022-08-19T09:08:15;9.17;;;8.20;;
4939;SDS011;2485;49.326;7.214;2022-08-19T09:10:44;10.77;;;7.27;;
4939;SDS011;2485;49.326;7.214;2022-08-19T09:13:15;8.40;;;7.60;;
4939;SDS011;2485;49.326;7.214;2022-08-19T09:15:45;8.63;;;7.70;;
4939;SDS011;2485;49.326;7.214;2022-08-19T09:18:15;8.80;;;7.90;;
4939;SDS011;2485;49.326;7.214;2022-08-19T09:20:43;9.70;;;8.70;;
4939;SDS011;2485;49.326;7.214;2022-08-19T09:23:11;9.13;;;8.23;;
4939;SDS011;2485;49.326;7.214;2022-08-19T09:25:38;8.80;;;7.97;;
4939;SDS011;2485;49.326;7.214;2022-08-19T09:28:05;7.73;;;6.93;;
4939;SDS011;2485;49.326;7.214;2022-08-19T09:30:32;11.63;;;7.23;;
4939;SDS011;2485;49.326;7.214;2022-08-19T09:32:59;7.60;;;6.90;;
4939;SDS011;2485;49.326;7.214;2022-08-19T09:35:28;9.23;;;7.80;;
4939;SDS011;2485;49.326;7.214;2022-08-19T09:37:56;8.03;;;6.70;;
4939;SDS011;2485;49.326;7.214;2022-08-19T09:40:24;7.50;;;6.70;;
4939;SDS011;2485;49.326;7.214;2022-08-19T09:42:51;9.50;;;8.50;;
4939;SDS011;2485;49.326;7.214;2022-08-19T09:45:20;9.10;;;7.33;;
4939;SDS011;2485;49.326;7.214;2022-08-19T09:47:47;8.70;;;7.50;;
4939;SDS011;2485;49.326;7.214;2022-08-19T09:50:14;7.77;;;7.00;;
4939;SDS011;2485;49.326;7.214;2022-08-19T09:52:44;7.77;;;6.20;;
4939;SDS011;2485;49.326;7.214;2022-08-19T09:55:11;6.70;;;6.10;;
4939;SDS011;2485;49.326;7.214;2022-08-19T09:57:38;7.30;;;5.80;;
4939;SDS011;2485;49.326;7.214;2022-08-19T10:00:06;5.97;;;5.47;;
4939;SDS011;2485;49.326;7.214;2022-08-19T10:02:34;6.53;;;5.80;;
4939;SDS011;2485;49.326;7.214;2022-08-19T10:05:01;6.93;;;6.33;;
4939;SDS011;2485;49.326;7.214;2022-08-19T10:07:47;7.57;;;6.30;;
4939;SDS011;2485;49.326;7.214;2022-08-19T10:10:13;6.73;;;5.93;;
4939;SDS011;2485;49.326;7.214;2022-08-19T10:12:40;11.23;;;6.30;;
4939;SDS011;2485;49.326;7.214;2022-08-19T10:15:07;6.50;;;5.80;;
4939;SDS011;2485;49.326;7.214;2022-08-19T10:17:34;5.93;;;5.37;;
4939;SDS011;2485;49.326;7.214;2022-08-19T10:20:01;5.80;;;5.30;;
4939;SDS011;2485;49.326;7.214;2022-08-19T10:22:29;5.87;;;5.30;;
4939;SDS011;2485;49.326;7.214;2022-08-19T10:24:57;5.80;;;5.30;;
4939;SDS011;2485;49.326;7.214;2022-08-19T10:27:24;6.20;;;5.60;;
4939;SDS011;2485;49.326;7.214;2022-08-19T10:29:52;6.60;;;5.20;;
4939;SDS011;2485;49.326;7.214;2022-08-19T10:32:18;6.67;;;5.13;;
4939;SDS011;2485;49.326;7.214;2022-08-19T10:34:46;6.73;;;5.20;;
4939;SDS011;2485;49.326;7.214;2022-08-19T10:37:14;4.60;;;4.20;;
4939;SDS011;2485;49.326;7.214;2022-08-19T10:39:42;5.67;;;5.07;;
4939;SDS011;2485;49.326;7.214;2022-08-19T10:42:14;6.30;;;5.20;;
4939;SDS011;2485;49.326;7.214;2022-08-19T10:44:42;6.63;;;4.70;;
4939;SDS011;2485;49.326;7.214;2022-08-19T10:47:08;7.93;;;5.77;;
4939;SDS011;2485;49.326;7.214;2022-08-19T10:49:35;5.73;;;5.20;;
4939;SDS011;2485;49.326;7.214;2022-08-19T10:52:22;5.03;;;4.63;;
4939;SDS011;2485;49.326;7.214;2022-08-19T10:55:00;5.40;;;4.90;;
4939;SDS011;2485;49.326;7.214;2022-08-19T10:57:45;4.77;;;4.37;;
4939;SDS011;2485;49.326;7.214;2022-08-19T11:00:12;5.30;;;4.80;;
4939;SDS011;2485;49.326;7.214;2022-08-19T11:02:38;5.37;;;4.87;;
4939;SDS011;2485;49.326;7.214;2022-08-19T11:05:06;4.77;;;4.37;;
4939;SDS011;2485;49.326;7.214;2022-08-19T11:07:32;6.47;;;4.97;;
4939;SDS011;2485;49.326;7.214;2022-08-19T11:09:59;5.03;;;4.63;;
4939;SDS011;2485;49.326;7.214;2022-08-19T11:12:25;5.20;;;4.70;;
4939;SDS011;2485;49.326;7.214;2022-08-19T11:14:54;6.70;;;4.67;;
4939;SDS011;2485;49.326;7.214;2022-08-19T11:17:20;5.33;;;4.53;;
4939;SDS011;2485;49.326;7.214;2022-08-19T11:19:48;5.23;;;4.27;;
4939;SDS011;2485;49.326;7.214;2022-08-19T11:22:15;6.93;;;4.60;;
4939;SDS011;2485;49.326;7.214;2022-08-19T11:24:42;5.97;;;4.70;;
4939;SDS011;2485;49.326;7.214;2022-08-19T11:27:09;9.70;;;5.00;;
4939;SDS011;2485;49.326;7.214;2022-08-19T11:29:37;7.00;;;4.67;;
4939;SDS011;2485;49.326;7.214;2022-08-19T11:32:06;4.77;;;4.37;;
4939;SDS011;2485;49.326;7.214;2022-08-19T11:34:34;7.83;;;5.37;;
4939;SDS011;2485;49.326;7.214;2022-08-19T11:37:00;6.03;;;5.07;;
4939;SDS011;2485;49.326;7.214;2022-08-19T11:39:28;5.80;;;5.30;;
4939;SDS011;2485;49.326;7.214;2022-08-19T11:41:55;5.97;;;4.80;;
4939;SDS011;2485;49.326;7.214;2022-08-19T11:44:21;5.30;;;4.47;;
4939;SDS011;2485;49.326;7.214;2022-08-19T11:46:48;5.43;;;4.93;;
4939;SDS011;2485;49.326;7.214;2022-08-19T11:49:16;6.63;;;5.20;;
4939;SDS011;2485;49.326;7.214;2022-08-19T11:51:43;5.40;;;5.00;;
4939;SDS011;2485;49.326;7.214;2022-08-19T11:54:10;5.43;;;4.90;;
4939;SDS011;2485;49.326;7.214;2022-08-19T11:56:37;6.73;;;5.40;;
4939;SDS011;2485;49.326;7.214;2022-08-19T11:59:04;8.30;;;5.27;;
4939;SDS011;2485;49.326;7.214;2022-08-19T12:01:30;6.93;;;5.53;;
4939;SDS011;2485;49.326;7.214;2022-08-19T12:03:57;5.70;;;5.03;;
4939;SDS011;2485;49.326;7.214;2022-08-19T12:06:25;4.20;;;3.80;;
4939;SDS011;2485;49.326;7.214;2022-08-19T12:08:53;4.53;;;4.13;;
4939;SDS011;2485;49.326;7.214;2022-08-19T12:11:20;5.30;;;4.80;;
4939;SDS011;2485;49.326;7.214;2022-08-19T12:13:46;4.70;;;4.30;;
4939;SDS011;2485;49.326;7.214;2022-08-19T12:16:14;4.50;;;4.03;;
4939;SDS011;2485;49.326;7.214;2022-08-19T12:18:40;4.73;;;3.83;;
4939;SDS011;2485;49.326;7.214;2022-08-19T12:21:09;4.13;;;3.83;;
4939;SDS011;2485;49.326;7.214;2022-08-19T12:23:37;4.47;;;4.07;;
4939;SDS011;2485;49.326;7.214;2022-08-19T12:26:04;7.33;;;4.13;;
4939;SDS011;2485;49.326;7.214;2022-08-19T12:28:30;6.57;;;4.23;;
4939;SDS011;2485;49.326;7.214;2022-08-19T12:30:56;4.60;;;4.20;;
4939;SDS011;2485;49.326;7.214;2022-08-19T12:33:23;6.23;;;5.07;;
4939;SDS011;2485;49.326;7.214;2022-08-19T12:35:52;4.97;;;4.50;;
4939;SDS011;2485;49.326;7.214;2022-08-19T12:38:19;5.13;;;4.63;;
4939;SDS011;2485;49.326;7.214;2022-08-19T12:40:49;6.57;;;5.57;;
4939;SDS011;2485;49.326;7.214;2022-08-19T12:43:16;5.27;;;4.77;;
4939;SDS011;2485;49.326;7.214;2022-08-19T12:45:44;9.87;;;5.70;;
4939;SDS011;2485;49.326;7.214;2022-08-19T12:48:11;5.97;;;5.37;;
4939;SDS011;2485;49.326;7.214;2022-08-19T12:50:38;6.30;;;5.33;;
4939;SDS011;2485;49.326;7.214;2022-08-19T12:53:05;8.73;;;6.20;;
4939;SDS011;2485;49.326;7.214;2022-08-19T12:55:31;6.70;;;5.70;;
4939;SDS011;2485;49.326;7.214;2022-08-19T12:57:59;6.90;;;5.47;;
4939;SDS011;2485;49.326;7.214;2022-08-19T13:00:26;6.40;;;5.77;;
4939;SDS011;2485;49.326;7.214;2022-08-19T13:02:53;10.90;;;6.90;;
4939;SDS011;2485;49.326;7.214;2022-08-19T13:05:20;8.30;;;7.07;;
4939;SDS011;2485;49.326;7.214;2022-08-19T13:07:48;6.53;;;5.90;;
4939;SDS011;2485;49.326;7.214;2022-08-19T13:10:15;6.43;;;5.83;;
4939;SDS011;2485;49.326;7.214;2022-08-19T13:12:42;8.20;;;6.37;;
4939;SDS011;2485;49.326;7.214;2022-08-19T13:15:10;7.40;;;6.70;;
4939;SDS011;2485;49.326;7.214;2022-08-19T13:17:37;8.93;;;6.97;;
4939;SDS011;2485;49.326;7.214;2022-08-19T13:20:04;7.77;;;7.07;;
4939;SDS011;2485;49.326;7.214;2022-08-19T13:22:32;8.23;;;7.37;;
4939;SDS011;2485;49.326;7.214;2022-08-19T13:25:00;10.40;;;8.40;;
4939;SDS011;2485;49.326;7.214;2022-08-19T13:27:27;7.90;;;7.07;;
4939;SDS011;2485;49.326;7.214;2022-08-19T13:29:53;7.63;;;6.13;;
4939;SDS011;2485;49.326;7.214;2022-08-19T13:32:38;7.40;;;6.70;;
4939;SDS011;2485;49.326;7.214;2022-08-19T13:35:22;8.50;;;6.93;;
4939;SDS011;2485;49.326;7.214;2022-08-19T13:37:48;7.60;;;6.83;;
4939;SDS011;2485;49.326;7.214;2022-08-19T13:40:16;7.60;;;6.73;;
4939;SDS011;2485;49.326;7.214;2022-08-19T13:42:44;8.93;;;7.50;;
4939;SDS011;2485;49.326;7.214;2022-08-19T13:45:12;8.07;;;6.93;;
4939;SDS011;2485;49.326;7.214;2022-08-19T13:47:40;8.43;;;7.63;;
4939;SDS011;2485;49.326;7.214;2022-08-19T13:50:09;15.43;;;8.63;;
4939;SDS011;2485;49.326;7.214;2022-08-19T13:52:36;7.80;;;7.10;;
4939;SDS011;2485;49.326;7.214;2022-08-19T13:55:03;9.13;;;7.53;;
4939;SDS011;2485;49.326;7.214;2022-08-19T13:57:30;11.17;;;7.97;;
4939;SDS011;2485;49.326;7.214;2022-08-19T13:59:56;9.90;;;7.63;;
4939;SDS011;2485;49.326;7.214;2022-08-19T14:02:23;7.67;;;6.87;;
4939;SDS011;2485;49.326;7.214;2022-08-19T14:04:51;11.47;;;7.50;;
4939;SDS011;2485;49.326;7.214;2022-08-19T14:07:17;7.67;;;6.87;;
4939;SDS011;2485;49.326;7.214;2022-08-19T14:09:44;9.83;;;6.90;;
4939;SDS011;2485;49.326;7.214;2022-08-19T14:12:10;9.33;;;8.30;;
4939;SDS011;2485;49.326;7.214;2022-08-19T14:14:36;11.27;;;7.40;;
4939;SDS011;2485;49.326;7.214;2022-08-19T14:17:05;8.93;;;7.40;;
4939;SDS011;2485;49.326;7.214;2022-08-19T14:19:31;7.07;;;6.37;;
4939;SDS011;2485;49.326;7.214;2022-08-19T14:21:59;10.70;;;5.97;;
4939;SDS011;2485;49.326;7.214;2022-08-19T14:24:25;7.17;;;6.43;;
4939;SDS011;2485;49.326;7.214;2022-08-19T14:26:52;7.40;;;5.57;;
4939;SDS011;2485;49.326;7.214;2022-08-19T14:29:18;8.37;;;6.60;;
4939;SDS011;2485;49.326;7.214;2022-08-19T14:31:44;6.90;;;6.10;;
4939;SDS011;2485;49.326;7.214;2022-08-19T14:34:11;8.50;;;5.97;;
4939;SDS011;2485;49.326;7.214;2022-08-19T14:36:37;5.53;;;5.03;;
4939;SDS011;2485;49.326;7.214;2022-08-19T14:39:05;9.73;;;4.90;;
4939;SDS011;2485;49.326;7.214;2022-08-19T14:41:31;5.60;;;5.10;;
4939;SDS011;2485;49.326;7.214;2022-08-19T14:43:58;6.63;;;4.90;;
4939;SDS011;2485;49.326;7.214;2022-08-19T14:46:25;4.80;;;4.40;;
4939;SDS011;2485;49.326;7.214;2022-08-19T14:48:53;5.70;;;5.20;;
4939;SDS011;2485;49.326;7.214;2022-08-19T14:51:20;6.03;;;5.13;;
4939;SDS011;2485;49.326;7.214;2022-08-19T14:53:47;5.70;;;4.57;;
4939;SDS011;2485;49.326;7.214;2022-08-19T14:56:17;5.10;;;4.70;;
4939;SDS011;2485;49.326;7.214;2022-08-19T14:58:44;4.73;;;4.33;;
4939;SDS011;2485;49.326;7.214;2022-08-19T15:01:10;5.60;;;5.10;;
4939;SDS011;2485;49.326;7.214;2022-08-19T15:03:37;4.30;;;3.90;;